createdAt,value
2023-05-16T00:00:35.126Z,64.02
2023-05-16T00:02:03.405Z,61.72
2023-05-16T00:03:37.487Z,59.82
2023-05-16T00:04:59.901Z,57.91
2023-05-16T00:06:29.083Z,57.45
2023-05-16T00:07:58.017Z,59.00
2023-05-16T00:09:19.501Z,60.44
2023-05-16T00:10:46.033Z,62.24
2023-05-16T00:12:08.060Z,64.16
2023-05-16T00:13:42.444Z,64.06
2023-05-16T00:15:14.393Z,62.13
2023-05-16T00:16:38.377Z,60.04
2023-05-16T00:18:15.623Z,57.91
2023-05-16T00:19:37.486Z,57.61
2023-05-16T00:21:11.360Z,59.01
2023-05-16T00:22:44.634Z,60.64
2023-05-16T00:24:17.950Z,62.93
2023-05-16T00:25:47.288Z,64.89
2023-05-16T00:27:09.288Z,64.24
2023-05-16T00:28:30.680Z,62.37
2023-05-16T00:29:52.639Z,60.51
2023-05-16T00:31:14.719Z,58.85
2023-05-16T00:32:38.514Z,57.62
2023-05-16T00:34:01.546Z,58.43
2023-05-16T00:35:25.578Z,60.12
2023-05-16T00:36:54.296Z,62.21
2023-05-16T00:38:16.692Z,64.43
2023-05-16T00:39:40.417Z,65.15
2023-05-16T00:41:02.225Z,63.57
2023-05-16T00:42:46.841Z,61.54
2023-05-16T00:44:21.576Z,59.23
2023-05-16T00:45:53.053Z,57.82
2023-05-16T00:47:26.744Z,58.53
2023-05-16T00:49:00.697Z,60.74
2023-05-16T00:50:24.644Z,62.57
2023-05-16T00:51:46.849Z,64.90
2023-05-16T00:53:11.085Z,65.08
2023-05-16T00:54:33.278Z,63.52
2023-05-16T00:55:54.866Z,61.79
2023-05-16T00:57:17.013Z,60.13
2023-05-16T00:58:38.852Z,58.66
2023-05-16T01:00:00.747Z,57.93
2023-05-16T01:01:22.535Z,59.05
2023-05-16T01:02:51.679Z,60.82
2023-05-16T01:04:15.898Z,62.95
2023-05-16T01:05:37.441Z,64.89
2023-05-16T01:06:59.186Z,64.29
2023-05-16T01:08:21.726Z,62.59
2023-05-16T01:09:51.096Z,60.56
2023-05-16T01:11:13.295Z,59.03
2023-05-16T01:12:34.882Z,57.74
2023-05-16T01:13:56.904Z,58.38
2023-05-16T01:15:18.588Z,59.92
2023-05-16T01:16:40.271Z,61.63
2023-05-16T01:18:02.409Z,63.66
2023-05-16T01:19:26.530Z,64.77
2023-05-16T01:20:55.898Z,63.47
2023-05-16T01:22:21.638Z,61.67
2023-05-16T01:23:43.551Z,59.92
2023-05-16T01:25:26.351Z,58.24
2023-05-16T01:26:48.034Z,58.05
2023-05-16T01:28:23.648Z,59.44
2023-05-16T01:29:48.030Z,61.43
2023-05-16T01:31:33.221Z,63.59
2023-05-16T01:32:59.603Z,64.56
2023-05-16T01:34:35.322Z,62.80
2023-05-16T01:35:57.353Z,60.83
2023-05-16T01:37:30.653Z,58.86
2023-05-16T01:39:01.848Z,57.55
2023-05-16T01:40:40.656Z,58.57
2023-05-16T01:42:23.252Z,60.33
2023-05-16T01:43:59.100Z,62.59
2023-05-16T01:45:44.396Z,64.97
2023-05-16T01:47:18.308Z,63.53
2023-05-16T01:48:52.351Z,61.52
2023-05-16T01:50:16.418Z,59.50
2023-05-16T01:51:51.610Z,57.78
2023-05-16T01:53:13.390Z,58.12
2023-05-16T01:54:51.663Z,59.75
2023-05-16T01:56:13.973Z,61.74
2023-05-16T01:57:49.353Z,63.92
2023-05-16T01:59:13.796Z,64.80
2023-05-16T02:00:37.701Z,63.25
2023-05-16T02:02:22.947Z,61.04
2023-05-16T02:03:49.313Z,59.10
2023-05-16T02:05:34.263Z,57.61
2023-05-16T02:07:16.788Z,58.87
2023-05-16T02:08:39.931Z,60.74
2023-05-16T02:10:19.729Z,62.97
2023-05-16T02:11:51.453Z,64.86
2023-05-16T02:13:36.770Z,63.44
2023-05-16T02:15:10.408Z,61.28
2023-05-16T02:16:45.584Z,59.22
2023-05-16T02:18:26.175Z,57.61
2023-05-16T02:20:15.599Z,58.81
2023-05-16T02:22:00.286Z,60.98
2023-05-16T02:23:31.422Z,63.42
2023-05-16T02:24:54.836Z,65.04
2023-05-16T02:26:16.344Z,63.86
2023-05-16T02:27:52.450Z,61.89
2023-05-16T02:29:33.440Z,59.71
2023-05-16T02:31:18.394Z,57.58
2023-05-16T02:32:52.063Z,58.06
2023-05-16T02:34:34.180Z,60.00
2023-05-16T02:36:06.158Z,62.08
2023-05-16T02:37:41.429Z,64.14
2023-05-16T02:39:04.204Z,64.44
2023-05-16T02:40:30.720Z,62.49
2023-05-16T02:42:08.471Z,60.40
2023-05-16T02:43:53.741Z,57.77
2023-05-16T02:45:22.618Z,57.50
2023-05-16T02:46:46.508Z,58.87
2023-05-16T02:48:22.458Z,60.61
2023-05-16T02:50:01.912Z,62.27
2023-05-16T02:51:23.712Z,64.45
2023-05-16T02:52:49.870Z,63.88
2023-05-16T02:54:25.737Z,61.88
2023-05-16T02:55:51.913Z,59.41
2023-05-16T02:57:25.435Z,57.49
2023-05-16T02:58:49.207Z,57.76
2023-05-16T03:00:18.914Z,59.24
2023-05-16T03:01:54.873Z,61.36
2023-05-16T03:03:36.186Z,63.25
2023-05-16T03:05:17.977Z,64.84
2023-05-16T03:06:47.519Z,63.03
2023-05-16T03:08:23.047Z,60.70
2023-05-16T03:09:47.346Z,58.55
2023-05-16T03:11:40.648Z,57.58
2023-05-16T03:13:14.444Z,59.29
2023-05-16T03:14:39.120Z,61.02
2023-05-16T03:16:03.113Z,62.71
2023-05-16T03:17:38.801Z,64.70
2023-05-16T03:19:24.056Z,63.68
2023-05-16T03:20:59.851Z,61.16
2023-05-16T03:22:45.269Z,59.14
2023-05-16T03:24:30.450Z,57.52
2023-05-16T03:26:17.467Z,58.90
2023-05-16T03:27:51.372Z,60.80
2023-05-16T03:29:26.506Z,62.84
2023-05-16T03:30:50.836Z,64.86
2023-05-16T03:32:36.112Z,64.05
2023-05-16T03:34:09.904Z,61.36
2023-05-16T03:35:43.551Z,59.38
2023-05-16T03:37:18.930Z,57.72
2023-05-16T03:38:43.167Z,58.14
2023-05-16T03:40:18.238Z,59.65
2023-05-16T03:42:03.653Z,61.84
2023-05-16T03:43:40.379Z,64.31
2023-05-16T03:45:07.666Z,64.55
2023-05-16T03:46:52.794Z,62.49
2023-05-16T03:48:26.547Z,60.02
2023-05-16T03:50:00.004Z,58.05
2023-05-16T03:51:45.835Z,57.86
2023-05-16T03:53:22.098Z,59.48
2023-05-16T03:54:51.835Z,61.52
2023-05-16T03:56:27.553Z,63.65
2023-05-16T03:57:57.052Z,64.82
2023-05-16T03:59:32.711Z,63.01
2023-05-16T04:01:04.129Z,60.97
2023-05-16T04:02:37.733Z,59.04
2023-05-16T04:04:02.131Z,57.39
2023-05-16T04:05:34.165Z,58.23
2023-05-16T04:07:27.968Z,60.09
2023-05-16T04:09:00.024Z,62.51
2023-05-16T04:10:33.436Z,64.65
2023-05-16T04:12:06.181Z,64.46
2023-05-16T04:13:39.677Z,62.37
2023-05-16T04:15:25.206Z,59.82
2023-05-16T04:17:11.045Z,57.53
2023-05-16T04:18:52.078Z,58.03
2023-05-16T04:20:45.369Z,60.04
2023-05-16T04:22:26.054Z,62.36
2023-05-16T04:24:02.426Z,64.61
2023-05-16T04:25:42.959Z,63.90
2023-05-16T04:27:09.424Z,61.53
2023-05-16T04:28:35.724Z,59.18
2023-05-16T04:30:08.828Z,57.41
2023-05-16T04:31:40.482Z,57.93
2023-05-16T04:33:25.673Z,59.71
2023-05-16T04:34:59.999Z,62.00
2023-05-16T04:36:29.881Z,63.96
2023-05-16T04:38:05.803Z,64.60
2023-05-16T04:39:39.187Z,62.80
2023-05-16T04:41:03.850Z,60.30
2023-05-16T04:42:30.174Z,58.25
2023-05-16T04:44:06.381Z,57.43
2023-05-16T04:45:30.761Z,58.54
2023-05-16T04:46:53.413Z,60.07
2023-05-16T04:48:20.082Z,62.03
2023-05-16T04:49:53.817Z,64.32
2023-05-16T04:51:27.293Z,64.01
2023-05-16T04:53:00.828Z,61.72
2023-05-16T04:54:34.585Z,59.41
2023-05-16T04:56:11.878Z,57.40
2023-05-16T04:57:47.616Z,57.63
2023-05-16T04:59:22.758Z,59.40
2023-05-16T05:01:04.114Z,61.38
2023-05-16T05:02:37.836Z,63.74
2023-05-16T05:04:01.808Z,64.35
2023-05-16T05:05:23.731Z,62.80
2023-05-16T05:06:55.259Z,60.67
2023-05-16T05:08:19.597Z,58.41
2023-05-16T05:09:54.463Z,56.79
2023-05-16T05:11:30.492Z,57.68
2023-05-16T05:13:04.024Z,59.69
2023-05-16T05:14:37.654Z,61.02
2023-05-16T05:15:59.419Z,63.05
2023-05-16T05:17:23.719Z,64.58
2023-05-16T05:19:08.809Z,63.09
2023-05-16T05:20:42.109Z,60.48
2023-05-16T05:22:08.633Z,58.52
2023-05-16T05:23:33.126Z,57.02
2023-05-16T05:25:18.491Z,57.80
2023-05-16T05:26:44.499Z,59.59
2023-05-16T05:28:13.859Z,60.87
2023-05-16T05:29:49.895Z,62.57
2023-05-16T05:31:11.973Z,64.03
2023-05-16T05:32:53.356Z,63.42
2023-05-16T05:34:25.203Z,60.82
2023-05-16T05:35:56.357Z,58.13
2023-05-16T05:37:41.685Z,56.57
2023-05-16T05:39:26.338Z,57.98
2023-05-16T05:40:49.578Z,59.59
2023-05-16T05:42:12.138Z,61.06
2023-05-16T05:43:46.184Z,62.57
2023-05-16T05:45:22.068Z,64.20
2023-05-16T05:46:57.737Z,63.03
2023-05-16T05:48:41.251Z,60.16
2023-05-16T05:50:14.627Z,57.30
2023-05-16T05:51:55.468Z,57.08
2023-05-16T05:53:40.961Z,58.54
2023-05-16T05:55:02.918Z,60.16
2023-05-16T05:56:38.676Z,61.58
2023-05-16T05:58:04.382Z,63.38
2023-05-16T05:59:39.388Z,64.14
2023-05-16T06:01:24.591Z,61.81
2023-05-16T06:03:13.080Z,59.22
2023-05-16T06:04:42.699Z,56.62
2023-05-16T06:06:20.431Z,56.69
2023-05-16T06:07:42.423Z,58.22
2023-05-16T06:09:27.789Z,59.68
2023-05-16T06:10:54.189Z,61.41
2023-05-16T06:12:27.989Z,62.50
2023-05-16T06:13:52.265Z,63.91
2023-05-16T06:15:38.647Z,62.63
2023-05-16T06:17:03.596Z,60.16
2023-05-16T06:18:32.635Z,57.52
2023-05-16T06:20:06.546Z,56.53
2023-05-16T06:21:31.104Z,57.61
2023-05-16T06:23:04.578Z,58.78
2023-05-16T06:24:38.166Z,59.91
2023-05-16T06:26:23.412Z,61.15
2023-05-16T06:27:57.394Z,62.45
2023-05-16T06:29:31.155Z,63.84
2023-05-16T06:31:00.680Z,62.63
2023-05-16T06:32:45.586Z,59.91
2023-05-16T06:34:30.982Z,56.26
2023-05-16T06:36:12.163Z,56.02
2023-05-16T06:37:34.275Z,57.12
2023-05-16T06:38:56.370Z,58.53
2023-05-16T06:40:31.948Z,60.20
2023-05-16T06:42:08.280Z,61.96
2023-05-16T06:43:53.455Z,63.19
2023-05-16T06:45:38.975Z,62.95
2023-05-16T06:47:00.570Z,59.66
2023-05-16T06:48:30.415Z,56.69
2023-05-16T06:50:03.818Z,55.61
2023-05-16T06:51:28.891Z,56.34
2023-05-16T06:53:14.189Z,57.51
2023-05-16T06:54:36.246Z,59.19
2023-05-16T06:56:10.026Z,60.11
2023-05-16T06:57:32.003Z,61.06
2023-05-16T06:59:06.032Z,62.35
2023-05-16T07:00:34.987Z,63.56
2023-05-16T07:01:56.888Z,63.45
2023-05-16T07:03:26.236Z,60.78
2023-05-16T07:04:50.585Z,56.81
2023-05-16T07:06:26.294Z,55.50
2023-05-16T07:08:08.038Z,56.13
2023-05-16T07:09:39.720Z,57.93
2023-05-16T07:11:13.343Z,59.18
2023-05-16T07:12:51.479Z,60.30
2023-05-16T07:14:15.267Z,61.63
2023-05-16T07:15:37.218Z,62.19
2023-05-16T07:17:01.422Z,62.99
2023-05-16T07:18:35.399Z,63.29
2023-05-16T07:20:17.807Z,61.16
2023-05-16T07:21:47.574Z,57.34
2023-05-16T07:23:09.362Z,54.62
2023-05-16T07:24:38.787Z,54.52
2023-05-16T07:26:03.124Z,55.82
2023-05-16T07:27:36.658Z,57.04
2023-05-16T07:29:24.494Z,57.80
2023-05-16T07:31:00.383Z,58.97
2023-05-16T07:32:31.681Z,59.61
2023-05-16T07:34:05.650Z,60.62
2023-05-16T07:35:39.227Z,61.41
2023-05-16T07:37:13.080Z,62.30
2023-05-16T07:38:39.416Z,63.77
2023-05-16T07:40:15.440Z,62.52
2023-05-16T07:41:46.966Z,58.92
2023-05-16T07:43:34.179Z,55.96
2023-05-16T07:44:57.131Z,55.98
2023-05-16T07:46:21.351Z,56.66
2023-05-16T07:47:50.516Z,57.30
2023-05-16T07:49:12.141Z,58.24
2023-05-16T07:50:46.004Z,58.70
2023-05-16T07:52:10.488Z,59.42
2023-05-16T07:53:32.692Z,59.95
2023-05-16T07:54:58.996Z,59.84
2023-05-16T07:56:23.734Z,60.13
2023-05-16T07:57:56.962Z,60.23
2023-05-16T07:59:42.406Z,60.88
2023-05-16T08:01:16.976Z,61.68
2023-05-16T08:02:50.639Z,62.31
2023-05-16T08:04:24.038Z,62.73
2023-05-16T08:05:53.499Z,60.89
2023-05-16T08:07:20.541Z,57.80
2023-05-16T08:08:42.106Z,55.32
2023-05-16T08:10:13.882Z,56.03
2023-05-16T08:11:36.357Z,55.57
2023-05-16T08:13:09.747Z,56.65
2023-05-16T08:14:32.556Z,56.98
2023-05-16T08:16:08.460Z,57.74
2023-05-16T08:17:41.687Z,58.96
2023-05-16T08:19:31.029Z,59.30
2023-05-16T08:21:17.006Z,59.75
2023-05-16T08:22:52.880Z,60.10
2023-05-16T08:24:29.085Z,61.52
2023-05-16T08:26:00.383Z,62.52
2023-05-16T08:27:45.779Z,61.96
2023-05-16T08:29:19.540Z,58.18
2023-05-16T08:31:00.277Z,54.93
2023-05-16T08:32:34.099Z,54.81
2023-05-16T08:34:13.130Z,55.21
2023-05-16T08:35:35.689Z,56.12
2023-05-16T08:37:06.991Z,56.59
2023-05-16T08:38:36.254Z,56.97
2023-05-16T08:40:03.922Z,57.62
2023-05-16T08:41:40.625Z,57.88
2023-05-16T08:43:05.206Z,58.83
2023-05-16T08:44:29.677Z,58.97
2023-05-16T08:46:05.052Z,59.01
2023-05-16T08:47:50.172Z,59.22
2023-05-16T08:49:12.353Z,59.40
2023-05-16T08:50:45.940Z,60.39
2023-05-16T08:52:31.194Z,60.45
2023-05-16T08:53:52.825Z,61.31
2023-05-16T08:55:29.532Z,62.17
2023-05-16T08:57:14.335Z,60.97
2023-05-16T08:58:59.725Z,60.71
2023-05-16T09:00:23.804Z,60.13
2023-05-16T09:02:00.692Z,60.20
2023-05-16T09:03:29.976Z,60.42
2023-05-16T09:05:03.711Z,60.40
2023-05-16T09:06:40.376Z,59.33
2023-05-16T09:10:07.249Z,59.48
2023-05-16T09:11:47.613Z,58.76
2023-05-16T09:13:20.971Z,59.47
2023-05-16T09:14:45.253Z,59.04
2023-05-16T09:16:07.244Z,58.52
2023-05-16T09:17:44.317Z,59.15
2023-05-16T09:19:34.425Z,58.41
2023-05-16T09:21:01.540Z,58.43
2023-05-16T09:22:23.183Z,59.45
2023-05-16T09:24:08.596Z,58.86
2023-05-16T09:25:43.376Z,58.29
2023-05-16T09:27:09.337Z,57.72
2023-05-16T09:28:31.886Z,57.48
2023-05-16T09:29:58.431Z,57.85
2023-05-16T09:31:33.034Z,57.58
2023-05-16T09:32:57.455Z,56.47
2023-05-16T09:34:21.247Z,55.96
2023-05-16T09:35:45.419Z,55.34
2023-05-16T09:37:07.305Z,55.16
2023-05-16T09:38:41.065Z,55.42
2023-05-16T09:40:03.224Z,56.65
2023-05-16T09:41:25.417Z,55.23
2023-05-16T09:42:54.447Z,54.69
2023-05-16T09:44:16.693Z,54.22
2023-05-16T09:46:01.828Z,53.49
2023-05-16T09:47:35.616Z,54.68
2023-05-16T09:48:57.281Z,54.53
2023-05-16T09:50:30.833Z,54.92
2023-05-16T09:52:04.376Z,55.33
2023-05-16T09:53:27.601Z,55.28
2023-05-16T09:54:57.101Z,55.29
2023-05-16T09:56:19.201Z,55.08
2023-05-16T09:57:41.054Z,54.73
2023-05-16T09:59:03.345Z,54.71
2023-05-16T10:00:27.720Z,54.78
2023-05-16T10:01:49.843Z,55.72
2023-05-16T10:03:12.086Z,54.46
2023-05-16T10:04:41.595Z,54.87
2023-05-16T10:06:07.688Z,53.97
2023-05-16T10:07:29.540Z,53.53
2023-05-16T10:08:53.837Z,53.51
2023-05-16T10:10:22.936Z,53.07
2023-05-16T10:12:07.869Z,52.90
2023-05-16T10:13:41.483Z,53.40
2023-05-16T10:15:05.926Z,53.48
2023-05-16T10:16:29.994Z,53.07
2023-05-16T10:17:53.880Z,53.66
2023-05-16T10:19:17.749Z,53.70
2023-05-16T10:20:40.041Z,53.15
2023-05-16T10:22:04.261Z,53.68
2023-05-16T10:23:26.305Z,53.91
2023-05-16T10:24:50.652Z,53.75
2023-05-16T10:26:14.545Z,53.89
2023-05-16T10:27:47.376Z,53.57
2023-05-16T10:29:16.461Z,52.77
2023-05-16T10:30:40.487Z,53.77
2023-05-16T10:32:02.798Z,53.21
2023-05-16T10:33:27.957Z,53.10
2023-05-16T10:35:01.226Z,53.90
2023-05-16T10:36:23.270Z,53.04
2023-05-16T10:37:45.070Z,52.82
2023-05-16T10:39:18.436Z,52.15
2023-05-16T10:40:47.996Z,53.66
2023-05-16T10:42:18.390Z,52.18
2023-05-16T10:43:50.028Z,51.95
2023-05-16T10:45:11.720Z,52.20
2023-05-16T10:46:47.357Z,52.10
2023-05-16T10:48:11.547Z,53.00
2023-05-16T10:49:35.854Z,54.56
2023-05-16T10:50:57.535Z,54.27
2023-05-16T10:52:22.066Z,52.69
2023-05-16T10:53:46.155Z,52.41
2023-05-16T10:55:07.840Z,51.89
2023-05-16T10:56:29.899Z,52.62
2023-05-16T10:57:51.552Z,53.25
2023-05-16T10:59:13.999Z,53.14
2023-05-16T11:00:35.734Z,54.43
2023-05-16T11:01:57.800Z,53.73
2023-05-16T11:03:31.728Z,53.18
2023-05-16T11:04:55.741Z,53.09
2023-05-16T11:06:18.310Z,52.53
2023-05-16T11:07:42.455Z,51.40
2023-05-16T11:09:10.422Z,51.89
2023-05-16T11:10:44.500Z,50.79
2023-05-16T11:12:06.441Z,51.08
2023-05-16T11:13:57.117Z,51.06
2023-05-16T11:15:19.475Z,50.00
2023-05-16T11:16:44.237Z,48.90
2023-05-16T11:18:06.652Z,49.67
2023-05-16T11:19:28.067Z,48.79
2023-05-16T11:20:59.572Z,49.36
2023-05-16T11:22:24.235Z,49.08
2023-05-16T11:23:48.932Z,47.93
2023-05-16T11:25:10.920Z,48.26
2023-05-16T11:26:35.136Z,49.06
2023-05-16T11:27:56.650Z,48.59
2023-05-16T11:29:18.479Z,48.49
2023-05-16T11:30:40.612Z,48.55
2023-05-16T11:32:06.552Z,48.89
2023-05-16T11:33:36.583Z,49.47
2023-05-16T11:35:00.239Z,49.99
2023-05-16T11:36:25.551Z,50.90
2023-05-16T11:37:47.306Z,50.17
2023-05-16T11:39:12.577Z,50.75
2023-05-16T11:40:34.949Z,50.01
2023-05-16T11:41:58.741Z,49.80
2023-05-16T11:43:27.942Z,49.17
2023-05-16T11:44:57.980Z,49.08
2023-05-16T11:46:19.833Z,49.34
2023-05-16T11:47:41.734Z,49.81
2023-05-16T11:49:03.207Z,50.00
2023-05-16T11:50:25.020Z,49.72
2023-05-16T11:51:58.269Z,48.74
2023-05-16T11:53:22.595Z,49.30
2023-05-16T11:54:44.582Z,49.15
2023-05-16T11:56:08.953Z,49.55
2023-05-16T11:57:32.840Z,49.37
2023-05-16T11:58:54.313Z,49.86
2023-05-16T12:00:16.628Z,50.02
2023-05-16T12:01:43.394Z,50.16
2023-05-16T12:03:05.923Z,50.39
2023-05-16T12:04:28.519Z,50.83
2023-05-16T12:06:09.692Z,50.25
2023-05-16T12:07:40.936Z,50.55
2023-05-16T12:09:09.932Z,50.92
2023-05-16T12:10:34.805Z,51.27
2023-05-16T12:11:59.156Z,51.50
2023-05-16T12:13:30.248Z,52.06
2023-05-16T12:14:54.466Z,52.03
2023-05-16T12:16:16.568Z,52.48
2023-05-16T12:17:52.205Z,53.46
2023-05-16T12:19:26.093Z,53.16
2023-05-16T12:20:49.947Z,52.92
2023-05-16T12:22:14.560Z,52.51
2023-05-16T12:23:48.328Z,52.52
2023-05-16T12:25:21.583Z,52.56
2023-05-16T12:26:45.758Z,52.78
2023-05-16T12:28:21.647Z,53.24
2023-05-16T12:29:57.209Z,53.48
2023-05-16T12:31:31.025Z,52.97
2023-05-16T12:32:56.543Z,53.31
2023-05-16T12:34:33.303Z,52.75
2023-05-16T12:35:55.282Z,53.40
2023-05-16T12:37:16.928Z,53.26
2023-05-16T12:38:53.046Z,52.95
2023-05-16T12:40:17.135Z,53.08
2023-05-16T12:41:50.940Z,52.08
2023-05-16T12:43:13.007Z,52.16
2023-05-16T12:44:35.711Z,52.66
2023-05-16T12:46:00.122Z,52.96
2023-05-16T12:47:29.473Z,53.12
2023-05-16T12:48:58.853Z,52.99
2023-05-16T12:50:20.255Z,53.02
2023-05-16T12:51:44.045Z,52.72
2023-05-16T12:53:05.468Z,51.84
2023-05-16T12:54:27.219Z,51.91
2023-05-16T12:55:49.379Z,51.66
2023-05-16T12:57:10.966Z,52.22
2023-05-16T12:58:35.358Z,51.34
2023-05-16T12:59:57.136Z,51.37
2023-05-16T13:01:21.622Z,51.84
2023-05-16T13:02:46.010Z,51.69
2023-05-16T13:04:15.208Z,51.66
2023-05-16T13:05:39.732Z,51.46
2023-05-16T13:07:11.129Z,51.82
2023-05-16T13:08:32.933Z,51.71
2023-05-16T13:09:54.738Z,52.09
2023-05-16T13:11:16.336Z,51.17
2023-05-16T13:12:52.228Z,50.20
2023-05-16T13:14:16.611Z,52.28
2023-05-16T13:15:38.517Z,50.90
2023-05-16T13:17:04.862Z,50.78
2023-05-16T13:18:29.137Z,50.71
2023-05-16T13:19:53.448Z,50.74
2023-05-16T13:21:24.985Z,49.60
2023-05-16T13:22:48.885Z,49.45
2023-05-16T13:24:22.262Z,49.59
2023-05-16T13:25:49.078Z,49.72
2023-05-16T13:27:11.325Z,50.01
2023-05-16T13:28:36.344Z,50.01
2023-05-16T13:30:00.368Z,50.53
2023-05-16T13:31:34.129Z,49.63
2023-05-16T13:33:03.649Z,49.66
2023-05-16T13:34:27.550Z,49.95
2023-05-16T13:35:49.138Z,48.81
2023-05-16T13:37:18.436Z,49.06
2023-05-16T13:38:43.185Z,48.96
2023-05-16T13:40:05.203Z,49.82
2023-05-16T13:41:30.180Z,49.95
2023-05-16T13:42:52.206Z,49.74
2023-05-16T13:44:17.072Z,50.45
2023-05-16T13:45:50.907Z,50.42
2023-05-16T13:47:12.557Z,50.34
2023-05-16T13:48:45.975Z,50.96
2023-05-16T13:50:10.433Z,50.99
2023-05-16T13:51:35.092Z,51.33
2023-05-16T13:53:04.384Z,52.05
2023-05-16T13:54:33.633Z,52.11
2023-05-16T13:55:57.976Z,52.22
2023-05-16T13:57:27.817Z,51.39
2023-05-16T13:59:01.102Z,51.10
2023-05-16T14:00:43.329Z,50.69
2023-05-16T14:02:06.823Z,50.74
2023-05-16T14:03:33.722Z,50.75
2023-05-16T14:05:07.364Z,50.09
2023-05-16T14:06:29.379Z,51.48
2023-05-16T14:07:53.996Z,51.16
2023-05-16T14:09:16.869Z,51.30
2023-05-16T14:10:38.863Z,51.71
2023-05-16T14:12:13.307Z,51.88
2023-05-16T14:13:35.482Z,52.12
2023-05-16T14:15:02.626Z,52.58
2023-05-16T14:16:39.933Z,52.56
2023-05-16T14:18:13.429Z,52.82
2023-05-16T14:19:36.431Z,52.85
2023-05-16T14:20:58.813Z,51.84
2023-05-16T14:22:20.035Z,52.26
2023-05-16T14:23:44.399Z,52.30
2023-05-16T14:25:08.636Z,52.49
2023-05-16T14:26:32.425Z,52.49
2023-05-16T14:27:53.981Z,52.46
2023-05-16T14:29:15.985Z,51.84
2023-05-16T14:30:37.825Z,51.65
2023-05-16T14:32:08.976Z,52.34
2023-05-16T14:33:33.305Z,52.85
2023-05-16T14:34:57.316Z,53.03
2023-05-16T14:36:18.980Z,53.04
2023-05-16T14:37:48.620Z,52.26
2023-05-16T14:39:21.675Z,52.38
2023-05-16T14:40:43.474Z,52.07
2023-05-16T14:42:08.250Z,51.83
2023-05-16T14:43:32.940Z,52.09
2023-05-16T14:44:54.633Z,51.94
2023-05-16T14:46:18.443Z,51.84
2023-05-16T14:47:55.090Z,52.84
2023-05-16T14:49:16.972Z,52.22
2023-05-16T14:50:38.626Z,52.12
2023-05-16T14:52:00.540Z,52.08
2023-05-16T14:53:34.378Z,52.02
2023-05-16T14:54:56.213Z,51.88
2023-05-16T14:56:20.336Z,51.50
2023-05-16T14:57:45.267Z,50.53
2023-05-16T14:59:09.722Z,51.09
2023-05-16T15:00:43.171Z,51.84
2023-05-16T15:02:04.722Z,50.46
2023-05-16T15:03:33.623Z,50.35
2023-05-16T15:05:00.137Z,49.67
2023-05-16T15:06:31.683Z,49.65
2023-05-16T15:07:58.550Z,49.24
2023-05-16T15:09:20.690Z,49.58
2023-05-16T15:10:49.833Z,50.02
2023-05-16T15:12:33.070Z,49.88
2023-05-16T15:13:54.612Z,49.02
2023-05-16T15:15:16.634Z,49.27
2023-05-16T15:16:50.925Z,49.29
2023-05-16T15:18:24.061Z,49.18
2023-05-16T15:19:57.900Z,49.22
2023-05-16T15:21:22.033Z,49.86
2023-05-16T15:22:58.274Z,51.83
2023-05-16T15:24:31.707Z,51.66
2023-05-16T15:26:05.695Z,50.76
2023-05-16T15:27:50.955Z,50.46
2023-05-16T15:29:12.716Z,50.14
2023-05-16T15:30:46.682Z,50.30
2023-05-16T15:32:11.254Z,50.36
2023-05-16T15:33:48.704Z,50.52
2023-05-16T15:35:12.948Z,49.79
2023-05-16T15:36:42.459Z,49.91
2023-05-16T15:38:08.729Z,49.91
2023-05-16T15:39:32.773Z,50.16
2023-05-16T15:41:22.459Z,50.10
2023-05-16T15:42:50.706Z,50.30
2023-05-16T15:44:19.878Z,49.85
2023-05-16T15:45:58.858Z,50.28
2023-05-16T15:47:28.290Z,50.97
2023-05-16T15:48:52.502Z,50.99
2023-05-16T15:50:38.313Z,51.08
2023-05-16T15:52:10.217Z,51.45
2023-05-16T15:53:51.060Z,51.43
2023-05-16T15:55:19.872Z,51.66
2023-05-16T15:56:53.506Z,51.29
2023-05-16T15:58:15.076Z,51.90
2023-05-16T15:59:41.614Z,51.83
2023-05-16T16:01:12.937Z,51.69
2023-05-16T16:02:56.191Z,52.32
2023-05-16T16:04:33.245Z,52.42
2023-05-16T16:06:02.557Z,52.36
2023-05-16T16:07:43.761Z,52.90
2023-05-16T16:09:15.432Z,53.65
2023-05-16T16:10:50.300Z,53.70
2023-05-16T16:12:32.968Z,53.57
2023-05-16T16:14:08.493Z,54.16
2023-05-16T16:15:42.342Z,54.17
2023-05-16T16:17:19.795Z,54.60
2023-05-16T16:18:53.333Z,55.14
2023-05-16T16:20:26.616Z,55.54
2023-05-16T16:22:00.725Z,55.88
2023-05-16T16:23:31.756Z,55.53
2023-05-16T16:24:56.262Z,56.04
2023-05-16T16:26:29.759Z,55.91
2023-05-16T16:28:01.282Z,56.35
2023-05-16T16:29:37.722Z,56.46
2023-05-16T16:31:22.922Z,57.19
2023-05-16T16:32:56.542Z,57.62
2023-05-16T16:34:29.995Z,57.95
2023-05-16T16:35:59.275Z,58.23
2023-05-16T16:37:41.660Z,58.27
2023-05-16T16:39:05.672Z,58.50
2023-05-16T16:40:50.912Z,58.92
2023-05-16T16:42:31.334Z,59.30
2023-05-16T16:43:53.250Z,60.12
2023-05-16T16:45:29.928Z,59.78
2023-05-16T16:47:04.392Z,59.88
2023-05-16T16:48:47.031Z,59.18
2023-05-16T16:50:22.863Z,59.82
2023-05-16T16:51:56.233Z,59.71
2023-05-16T16:53:41.625Z,59.47
2023-05-16T16:55:22.357Z,59.79
2023-05-16T16:56:58.476Z,60.39
2023-05-16T16:58:27.459Z,60.05
2023-05-16T16:59:49.289Z,60.40
2023-05-16T17:01:30.061Z,60.34
2023-05-16T17:03:12.685Z,60.55
2023-05-16T17:04:48.753Z,61.34
2023-05-16T17:06:24.730Z,60.89
2023-05-16T17:07:58.729Z,61.14
2023-05-16T17:09:43.788Z,61.25
2023-05-16T17:11:07.710Z,61.59
2023-05-16T17:12:48.847Z,62.00
2023-05-16T17:14:12.597Z,61.83
2023-05-16T17:15:47.194Z,61.80
2023-05-16T17:17:28.730Z,62.12
2023-05-16T17:18:53.256Z,62.35
2023-05-16T17:20:29.039Z,62.79
2023-05-16T17:22:02.670Z,62.02
2023-05-16T17:23:26.326Z,58.33
2023-05-16T17:24:50.581Z,55.23
2023-05-16T17:26:13.489Z,54.76
2023-05-16T17:27:49.002Z,55.47
2023-05-16T17:29:26.796Z,56.42
2023-05-16T17:31:00.988Z,57.26
2023-05-16T17:32:41.786Z,57.78
2023-05-16T17:34:12.787Z,58.70
2023-05-16T17:35:53.772Z,59.25
2023-05-16T17:37:23.324Z,59.70
2023-05-16T17:38:54.454Z,60.05
2023-05-16T17:40:17.757Z,60.13
2023-05-16T17:41:47.288Z,60.29
2023-05-16T17:43:16.005Z,61.25
2023-05-16T17:44:59.069Z,61.44
2023-05-16T17:46:21.584Z,62.08
2023-05-16T17:47:43.760Z,62.45
2023-05-16T17:49:13.206Z,62.81
2023-05-16T17:50:46.774Z,60.85
2023-05-16T17:52:23.081Z,57.46
2023-05-16T17:53:45.269Z,55.78
2023-05-16T17:55:09.060Z,55.49
2023-05-16T17:56:31.255Z,55.93
2023-05-16T17:57:53.136Z,56.83
2023-05-16T17:59:17.089Z,57.74
2023-05-16T18:00:50.651Z,58.93
2023-05-16T18:02:38.154Z,60.06
2023-05-16T18:04:01.335Z,60.68
2023-05-16T18:05:23.372Z,61.38
2023-05-16T18:06:56.883Z,61.82
2023-05-16T18:08:32.305Z,62.01
2023-05-16T18:10:13.262Z,61.96
2023-05-16T18:11:47.044Z,62.94
2023-05-16T18:13:08.807Z,62.62
2023-05-16T18:14:45.787Z,60.48
2023-05-16T18:16:10.427Z,57.80
2023-05-16T18:17:34.584Z,56.48
2023-05-16T18:19:16.534Z,56.74
2023-05-16T18:20:48.400Z,57.70
2023-05-16T18:22:23.544Z,58.85
2023-05-16T18:23:59.545Z,60.19
2023-05-16T18:25:23.240Z,61.13
2023-05-16T18:26:48.285Z,62.18
2023-05-16T18:28:19.421Z,63.20
2023-05-16T18:29:59.967Z,62.29
2023-05-16T18:31:33.757Z,59.77
2023-05-16T18:32:55.750Z,56.85
2023-05-16T18:34:29.057Z,56.50
2023-05-16T18:36:14.552Z,57.55
2023-05-16T18:37:39.068Z,59.09
2023-05-16T18:39:22.197Z,60.02
2023-05-16T18:40:48.095Z,61.49
2023-05-16T18:42:21.271Z,62.24
2023-05-16T18:43:43.477Z,63.64
2023-05-16T18:45:07.586Z,63.11
2023-05-16T18:46:29.725Z,60.58
2023-05-16T18:47:54.428Z,58.00
2023-05-16T18:49:39.616Z,56.56
2023-05-16T18:51:12.640Z,57.48
2023-05-16T18:52:58.046Z,58.75
2023-05-16T18:54:34.111Z,60.05
2023-05-16T18:55:58.770Z,61.21
2023-05-16T18:57:39.616Z,61.69
2023-05-16T18:59:13.187Z,63.60
2023-05-16T19:00:37.386Z,63.76
2023-05-16T19:02:01.787Z,62.15
2023-05-16T19:03:35.840Z,59.77
2023-05-16T19:05:09.655Z,56.64
2023-05-16T19:06:34.491Z,56.05
2023-05-16T19:07:58.496Z,57.00
2023-05-16T19:09:30.533Z,58.09
2023-05-16T19:11:06.877Z,59.95
2023-05-16T19:12:37.829Z,61.78
2023-05-16T19:14:11.528Z,63.17
2023-05-16T19:15:35.669Z,63.64
2023-05-16T19:17:01.765Z,61.61
2023-05-16T19:18:37.170Z,58.91
2023-05-16T19:20:30.638Z,56.91
2023-05-16T19:21:55.632Z,57.78
2023-05-16T19:23:19.664Z,58.49
2023-05-16T19:24:53.179Z,59.46
2023-05-16T19:26:28.472Z,60.74